sensor_id;sensor_type;location;lat;lon;timestamp;P1;durP1;ratioP1;P2;durP2;ratioP2
17153;SDS011;8692;52.164;7.558;2022-10-13T00:01:13;7.23;;;5.63;;
17153;SDS011;8692;52.164;7.558;2022-10-13T00:03:45;6.17;;;5.10;;
17153;SDS011;8692;52.164;7.558;2022-10-13T00:06:19;7.07;;;4.90;;
17153;SDS011;8692;52.164;7.558;2022-10-13T00:08:50;8.33;;;5.30;;
17153;SDS011;8692;52.164;7.558;2022-10-13T00:11:20;7.50;;;5.80;;
17153;SDS011;8692;52.164;7.558;2022-10-13T00:13:50;6.87;;;5.40;;
17153;SDS011;8692;52.164;7.558;2022-10-13T00:16:21;7.30;;;5.00;;
17153;SDS011;8692;52.164;7.558;2022-10-13T00:18:51;7.47;;;5.00;;
17153;SDS011;8692;52.164;7.558;2022-10-13T00:21:20;7.47;;;5.10;;
17153;SDS011;8692;52.164;7.558;2022-10-13T00:23:51;6.83;;;5.43;;
17153;SDS011;8692;52.164;7.558;2022-10-13T00:26:20;7.00;;;5.67;;
17153;SDS011;8692;52.164;7.558;2022-10-13T00:28:49;8.13;;;5.33;;
17153;SDS011;8692;52.164;7.558;2022-10-13T00:31:21;8.73;;;5.47;;
17153;SDS011;8692;52.164;7.558;2022-10-13T00:33:52;9.17;;;6.00;;
17153;SDS011;8692;52.164;7.558;2022-10-13T00:36:22;6.87;;;5.70;;
17153;SDS011;8692;52.164;7.558;2022-10-13T00:38:53;8.00;;;7.00;;
17153;SDS011;8692;52.164;7.558;2022-10-13T00:41:21;9.20;;;6.63;;
17153;SDS011;8692;52.164;7.558;2022-10-13T00:43:51;8.37;;;6.00;;
17153;SDS011;8692;52.164;7.558;2022-10-13T00:46:25;7.07;;;5.77;;
17153;SDS011;8692;52.164;7.558;2022-10-13T00:48:59;7.53;;;5.93;;
17153;SDS011;8692;52.164;7.558;2022-10-13T00:51:29;8.60;;;6.00;;
17153;SDS011;8692;52.164;7.558;2022-10-13T00:54:01;10.07;;;5.67;;
17153;SDS011;8692;52.164;7.558;2022-10-13T00:56:32;7.33;;;6.13;;
17153;SDS011;8692;52.164;7.558;2022-10-13T00:59:02;8.93;;;6.17;;
17153;SDS011;8692;52.164;7.558;2022-10-13T01:01:32;8.53;;;6.50;;
17153;SDS011;8692;52.164;7.558;2022-10-13T01:04:04;11.80;;;7.50;;
17153;SDS011;8692;52.164;7.558;2022-10-13T01:06:34;7.53;;;5.80;;
17153;SDS011;8692;52.164;7.558;2022-10-13T01:09:06;9.40;;;6.53;;
17153;SDS011;8692;52.164;7.558;2022-10-13T01:11:39;9.13;;;6.17;;
17153;SDS011;8692;52.164;7.558;2022-10-13T01:14:17;9.87;;;6.27;;
17153;SDS011;8692;52.164;7.558;2022-10-13T01:16:55;9.93;;;6.73;;
17153;SDS011;8692;52.164;7.558;2022-10-13T01:19:43;10.37;;;6.57;;
17153;SDS011;8692;52.164;7.558;2022-10-13T01:22:34;8.57;;;6.57;;
17153;SDS011;8692;52.164;7.558;2022-10-13T01:25:19;8.70;;;6.43;;
17153;SDS011;8692;52.164;7.558;2022-10-13T01:28:07;7.70;;;6.33;;
17153;SDS011;8692;52.164;7.558;2022-10-13T01:31:01;10.80;;;7.10;;
17153;SDS011;8692;52.164;7.558;2022-10-13T01:33:35;9.90;;;7.27;;
17153;SDS011;8692;52.164;7.558;2022-10-13T01:36:12;10.40;;;6.50;;
17153;SDS011;8692;52.164;7.558;2022-10-13T01:38:49;11.50;;;7.27;;
17153;SDS011;8692;52.164;7.558;2022-10-13T01:41:24;9.00;;;6.90;;
17153;SDS011;8692;52.164;7.558;2022-10-13T01:43:56;11.50;;;7.00;;
17153;SDS011;8692;52.164;7.558;2022-10-13T01:46:34;8.40;;;6.17;;
17153;SDS011;8692;52.164;7.558;2022-10-13T01:49:08;11.93;;;7.50;;
17153;SDS011;8692;52.164;7.558;2022-10-13T01:51:38;11.67;;;7.40;;
17153;SDS011;8692;52.164;7.558;2022-10-13T01:54:10;9.40;;;7.00;;
17153;SDS011;8692;52.164;7.558;2022-10-13T01:56:41;13.33;;;7.30;;
17153;SDS011;8692;52.164;7.558;2022-10-13T01:59:10;10.87;;;7.43;;
17153;SDS011;8692;52.164;7.558;2022-10-13T02:01:50;11.53;;;7.73;;
17153;SDS011;8692;52.164;7.558;2022-10-13T02:04:27;10.97;;;8.57;;
17153;SDS011;8692;52.164;7.558;2022-10-13T02:07:05;11.00;;;7.40;;
17153;SDS011;8692;52.164;7.558;2022-10-13T02:09:40;9.27;;;7.17;;
17153;SDS011;8692;52.164;7.558;2022-10-13T02:12:15;12.17;;;8.67;;
17153;SDS011;8692;52.164;7.558;2022-10-13T02:14:47;10.40;;;7.77;;
17153;SDS011;8692;52.164;7.558;2022-10-13T02:17:21;9.43;;;7.50;;
17153;SDS011;8692;52.164;7.558;2022-10-13T02:19:52;12.37;;;8.73;;
17153;SDS011;8692;52.164;7.558;2022-10-13T02:22:23;10.90;;;8.40;;
17153;SDS011;8692;52.164;7.558;2022-10-13T02:24:57;10.03;;;8.10;;
17153;SDS011;8692;52.164;7.558;2022-10-13T02:27:26;10.17;;;8.63;;
17153;SDS011;8692;52.164;7.558;2022-10-13T02:29:55;11.43;;;7.93;;
17153;SDS011;8692;52.164;7.558;2022-10-13T02:32:29;10.50;;;7.60;;
17153;SDS011;8692;52.164;7.558;2022-10-13T02:34:57;10.33;;;8.63;;
17153;SDS011;8692;52.164;7.558;2022-10-13T02:37:28;10.80;;;8.23;;
17153;SDS011;8692;52.164;7.558;2022-10-13T02:39:59;14.87;;;8.77;;
17153;SDS011;8692;52.164;7.558;2022-10-13T02:42:27;12.33;;;9.77;;
17153;SDS011;8692;52.164;7.558;2022-10-13T02:44:57;11.57;;;8.83;;
17153;SDS011;8692;52.164;7.558;2022-10-13T02:47:25;11.00;;;8.63;;
17153;SDS011;8692;52.164;7.558;2022-10-13T02:49:57;14.70;;;9.30;;
17153;SDS011;8692;52.164;7.558;2022-10-13T02:52:27;16.83;;;10.33;;
17153;SDS011;8692;52.164;7.558;2022-10-13T02:54:55;13.20;;;9.73;;
17153;SDS011;8692;52.164;7.558;2022-10-13T02:57:23;12.20;;;10.17;;
17153;SDS011;8692;52.164;7.558;2022-10-13T02:59:52;15.80;;;10.17;;
17153;SDS011;8692;52.164;7.558;2022-10-13T03:02:20;13.87;;;10.00;;
17153;SDS011;8692;52.164;7.558;2022-10-13T03:04:49;14.03;;;10.47;;
17153;SDS011;8692;52.164;7.558;2022-10-13T03:07:19;12.97;;;10.43;;
17153;SDS011;8692;52.164;7.558;2022-10-13T03:09:47;14.43;;;11.10;;
17153;SDS011;8692;52.164;7.558;2022-10-13T03:12:15;16.60;;;11.37;;
17153;SDS011;8692;52.164;7.558;2022-10-13T03:14:46;17.57;;;11.50;;
17153;SDS011;8692;52.164;7.558;2022-10-13T03:17:14;15.77;;;11.73;;
17153;SDS011;8692;52.164;7.558;2022-10-13T03:19:43;15.60;;;12.07;;
17153;SDS011;8692;52.164;7.558;2022-10-13T03:22:15;16.13;;;10.93;;
17153;SDS011;8692;52.164;7.558;2022-10-13T03:24:48;20.03;;;13.17;;
17153;SDS011;8692;52.164;7.558;2022-10-13T03:27:17;17.50;;;11.17;;
17153;SDS011;8692;52.164;7.558;2022-10-13T03:29:46;15.77;;;11.90;;
17153;SDS011;8692;52.164;7.558;2022-10-13T03:32:14;14.60;;;11.37;;
17153;SDS011;8692;52.164;7.558;2022-10-13T03:34:44;15.77;;;11.00;;
17153;SDS011;8692;52.164;7.558;2022-10-13T03:37:13;16.03;;;10.57;;
17153;SDS011;8692;52.164;7.558;2022-10-13T03:39:41;13.47;;;10.50;;
17153;SDS011;8692;52.164;7.558;2022-10-13T03:42:14;15.80;;;13.17;;
17153;SDS011;8692;52.164;7.558;2022-10-13T03:44:46;17.33;;;12.10;;
17153;SDS011;8692;52.164;7.558;2022-10-13T03:47:23;21.47;;;13.70;;
17153;SDS011;8692;52.164;7.558;2022-10-13T03:49:52;15.50;;;12.90;;
17153;SDS011;8692;52.164;7.558;2022-10-13T03:52:20;19.10;;;13.87;;
17153;SDS011;8692;52.164;7.558;2022-10-13T03:54:49;15.17;;;11.93;;
17153;SDS011;8692;52.164;7.558;2022-10-13T03:57:18;17.67;;;13.13;;
17153;SDS011;8692;52.164;7.558;2022-10-13T03:59:46;18.43;;;13.20;;
17153;SDS011;8692;52.164;7.558;2022-10-13T04:02:14;18.87;;;13.63;;
17153;SDS011;8692;52.164;7.558;2022-10-13T04:04:43;18.43;;;13.63;;
17153;SDS011;8692;52.164;7.558;2022-10-13T04:07:11;16.77;;;12.00;;
17153;SDS011;8692;52.164;7.558;2022-10-13T04:09:42;17.20;;;12.63;;
17153;SDS011;8692;52.164;7.558;2022-10-13T04:12:10;16.40;;;13.27;;
17153;SDS011;8692;52.164;7.558;2022-10-13T04:14:47;17.37;;;14.00;;
17153;SDS011;8692;52.164;7.558;2022-10-13T04:17:15;17.33;;;12.67;;
17153;SDS011;8692;52.164;7.558;2022-10-13T04:19:43;16.17;;;12.27;;
17153;SDS011;8692;52.164;7.558;2022-10-13T04:22:13;15.37;;;10.93;;
17153;SDS011;8692;52.164;7.558;2022-10-13T04:24:46;15.43;;;11.43;;
17153;SDS011;8692;52.164;7.558;2022-10-13T04:27:14;21.80;;;12.80;;
17153;SDS011;8692;52.164;7.558;2022-10-13T04:29:44;21.37;;;13.10;;
17153;SDS011;8692;52.164;7.558;2022-10-13T04:32:15;16.33;;;12.27;;
17153;SDS011;8692;52.164;7.558;2022-10-13T04:34:44;15.57;;;12.23;;
17153;SDS011;8692;52.164;7.558;2022-10-13T04:37:14;15.20;;;11.00;;
17153;SDS011;8692;52.164;7.558;2022-10-13T04:39:42;13.17;;;11.33;;
17153;SDS011;8692;52.164;7.558;2022-10-13T04:42:13;14.67;;;11.43;;
17153;SDS011;8692;52.164;7.558;2022-10-13T04:44:41;16.97;;;12.17;;
17153;SDS011;8692;52.164;7.558;2022-10-13T04:47:17;14.33;;;10.73;;
17153;SDS011;8692;52.164;7.558;2022-10-13T04:49:45;13.97;;;10.77;;
17153;SDS011;8692;52.164;7.558;2022-10-13T04:52:13;12.23;;;10.77;;
17153;SDS011;8692;52.164;7.558;2022-10-13T04:54:42;13.43;;;10.87;;
17153;SDS011;8692;52.164;7.558;2022-10-13T04:57:13;16.33;;;11.43;;
17153;SDS011;8692;52.164;7.558;2022-10-13T04:59:41;13.43;;;11.17;;
17153;SDS011;8692;52.164;7.558;2022-10-13T05:02:09;15.03;;;11.23;;
17153;SDS011;8692;52.164;7.558;2022-10-13T05:04:41;15.93;;;11.67;;
17153;SDS011;8692;52.164;7.558;2022-10-13T05:07:09;13.97;;;11.30;;
17153;SDS011;8692;52.164;7.558;2022-10-13T05:09:44;13.10;;;10.53;;
17153;SDS011;8692;52.164;7.558;2022-10-13T05:12:13;15.27;;;11.00;;
17153;SDS011;8692;52.164;7.558;2022-10-13T05:14:41;14.77;;;12.27;;
17153;SDS011;8692;52.164;7.558;2022-10-13T05:17:09;19.03;;;11.70;;
17153;SDS011;8692;52.164;7.558;2022-10-13T05:19:38;13.47;;;10.67;;
17153;SDS011;8692;52.164;7.558;2022-10-13T05:22:10;16.53;;;11.47;;
17153;SDS011;8692;52.164;7.558;2022-10-13T05:24:40;14.60;;;13.10;;
17153;SDS011;8692;52.164;7.558;2022-10-13T05:27:09;12.83;;;11.13;;
17153;SDS011;8692;52.164;7.558;2022-10-13T05:29:38;14.43;;;11.10;;
17153;SDS011;8692;52.164;7.558;2022-10-13T05:32:07;11.67;;;10.47;;
17153;SDS011;8692;52.164;7.558;2022-10-13T05:34:35;14.37;;;10.63;;
17153;SDS011;8692;52.164;7.558;2022-10-13T05:37:05;12.27;;;9.93;;
17153;SDS011;8692;52.164;7.558;2022-10-13T05:39:34;14.60;;;11.27;;
17153;SDS011;8692;52.164;7.558;2022-10-13T05:42:05;12.57;;;10.47;;
17153;SDS011;8692;52.164;7.558;2022-10-13T05:44:33;12.77;;;10.60;;
17153;SDS011;8692;52.164;7.558;2022-10-13T05:47:05;18.17;;;11.63;;
17153;SDS011;8692;52.164;7.558;2022-10-13T05:49:35;12.40;;;10.47;;
17153;SDS011;8692;52.164;7.558;2022-10-13T05:52:06;14.10;;;11.07;;
17153;SDS011;8692;52.164;7.558;2022-10-13T05:54:40;11.70;;;10.07;;
17153;SDS011;8692;52.164;7.558;2022-10-13T05:57:15;11.07;;;9.53;;
17153;SDS011;8692;52.164;7.558;2022-10-13T05:59:47;13.07;;;11.00;;
17153;SDS011;8692;52.164;7.558;2022-10-13T06:02:18;12.60;;;10.57;;
17153;SDS011;8692;52.164;7.558;2022-10-13T06:04:49;15.03;;;11.93;;
17153;SDS011;8692;52.164;7.558;2022-10-13T06:07:20;13.17;;;11.53;;
17153;SDS011;8692;52.164;7.558;2022-10-13T06:09:50;15.27;;;10.57;;
17153;SDS011;8692;52.164;7.558;2022-10-13T06:12:19;15.87;;;10.93;;
17153;SDS011;8692;52.164;7.558;2022-10-13T06:14:48;15.73;;;10.97;;
17153;SDS011;8692;52.164;7.558;2022-10-13T06:17:16;15.37;;;11.50;;
17153;SDS011;8692;52.164;7.558;2022-10-13T06:19:45;13.97;;;11.07;;
17153;SDS011;8692;52.164;7.558;2022-10-13T06:22:13;13.90;;;11.03;;
17153;SDS011;8692;52.164;7.558;2022-10-13T06:24:43;15.87;;;11.57;;
17153;SDS011;8692;52.164;7.558;2022-10-13T06:27:12;13.37;;;10.47;;
17153;SDS011;8692;52.164;7.558;2022-10-13T06:29:40;13.40;;;10.37;;
17153;SDS011;8692;52.164;7.558;2022-10-13T06:32:08;14.07;;;10.97;;
17153;SDS011;8692;52.164;7.558;2022-10-13T06:34:37;12.87;;;11.10;;
17153;SDS011;8692;52.164;7.558;2022-10-13T06:37:07;16.40;;;12.90;;
17153;SDS011;8692;52.164;7.558;2022-10-13T06:39:35;16.73;;;11.50;;
17153;SDS011;8692;52.164;7.558;2022-10-13T06:42:03;16.87;;;12.07;;
17153;SDS011;8692;52.164;7.558;2022-10-13T06:44:37;16.13;;;12.73;;
17153;SDS011;8692;52.164;7.558;2022-10-13T06:47:05;19.07;;;12.87;;
17153;SDS011;8692;52.164;7.558;2022-10-13T06:49:33;19.10;;;14.03;;
17153;SDS011;8692;52.164;7.558;2022-10-13T06:52:02;17.13;;;13.27;;
17153;SDS011;8692;52.164;7.558;2022-10-13T06:54:33;15.13;;;12.30;;
17153;SDS011;8692;52.164;7.558;2022-10-13T06:57:01;19.03;;;12.47;;
17153;SDS011;8692;52.164;7.558;2022-10-13T06:59:32;18.83;;;11.93;;
17153;SDS011;8692;52.164;7.558;2022-10-13T07:02:01;16.60;;;12.37;;
17153;SDS011;8692;52.164;7.558;2022-10-13T07:04:32;17.43;;;12.77;;
17153;SDS011;8692;52.164;7.558;2022-10-13T07:07:00;20.77;;;13.43;;
17153;SDS011;8692;52.164;7.558;2022-10-13T07:09:28;19.63;;;13.17;;
17153;SDS011;8692;52.164;7.558;2022-10-13T07:11:58;17.10;;;13.13;;
17153;SDS011;8692;52.164;7.558;2022-10-13T07:14:27;17.80;;;12.87;;
17153;SDS011;8692;52.164;7.558;2022-10-13T07:16:55;17.20;;;12.67;;
17153;SDS011;8692;52.164;7.558;2022-10-13T07:19:24;16.73;;;13.03;;
17153;SDS011;8692;52.164;7.558;2022-10-13T07:21:52;19.07;;;13.80;;
17153;SDS011;8692;52.164;7.558;2022-10-13T07:24:23;21.60;;;13.47;;
17153;SDS011;8692;52.164;7.558;2022-10-13T07:26:54;18.47;;;14.00;;
17153;SDS011;8692;52.164;7.558;2022-10-13T07:29:22;19.63;;;14.03;;
17153;SDS011;8692;52.164;7.558;2022-10-13T07:31:50;16.77;;;12.40;;
17153;SDS011;8692;52.164;7.558;2022-10-13T07:34:19;14.47;;;12.60;;
17153;SDS011;8692;52.164;7.558;2022-10-13T07:36:48;21.13;;;14.20;;
17153;SDS011;8692;52.164;7.558;2022-10-13T07:39:16;18.17;;;14.23;;
17153;SDS011;8692;52.164;7.558;2022-10-13T07:41:45;19.23;;;14.03;;
17153;SDS011;8692;52.164;7.558;2022-10-13T07:44:16;18.93;;;12.80;;
17153;SDS011;8692;52.164;7.558;2022-10-13T07:46:44;16.43;;;13.37;;
17153;SDS011;8692;52.164;7.558;2022-10-13T07:49:13;18.63;;;14.00;;
17153;SDS011;8692;52.164;7.558;2022-10-13T07:51:42;17.77;;;13.03;;
17153;SDS011;8692;52.164;7.558;2022-10-13T07:54:11;17.47;;;13.67;;
17153;SDS011;8692;52.164;7.558;2022-10-13T07:56:39;19.27;;;14.53;;
17153;SDS011;8692;52.164;7.558;2022-10-13T07:59:08;16.03;;;13.37;;
17153;SDS011;8692;52.164;7.558;2022-10-13T08:01:36;19.60;;;13.90;;
17153;SDS011;8692;52.164;7.558;2022-10-13T08:04:06;16.33;;;12.33;;
17153;SDS011;8692;52.164;7.558;2022-10-13T08:06:34;25.00;;;14.20;;
17153;SDS011;8692;52.164;7.558;2022-10-13T08:09:07;22.00;;;13.37;;
17153;SDS011;8692;52.164;7.558;2022-10-13T08:11:39;18.97;;;12.83;;
17153;SDS011;8692;52.164;7.558;2022-10-13T08:14:08;17.70;;;13.83;;
17153;SDS011;8692;52.164;7.558;2022-10-13T08:16:38;23.07;;;13.27;;
17153;SDS011;8692;52.164;7.558;2022-10-13T08:19:19;15.93;;;12.90;;
17153;SDS011;8692;52.164;7.558;2022-10-13T08:21:47;18.27;;;13.13;;
17153;SDS011;8692;52.164;7.558;2022-10-13T08:24:27;21.03;;;13.00;;
17153;SDS011;8692;52.164;7.558;2022-10-13T08:26:57;17.47;;;12.90;;
17153;SDS011;8692;52.164;7.558;2022-10-13T08:29:25;20.80;;;13.17;;
17153;SDS011;8692;52.164;7.558;2022-10-13T08:31:56;18.00;;;12.90;;
17153;SDS011;8692;52.164;7.558;2022-10-13T08:34:24;20.27;;;13.00;;
17153;SDS011;8692;52.164;7.558;2022-10-13T08:36:54;22.70;;;13.00;;
17153;SDS011;8692;52.164;7.558;2022-10-13T08:39:25;20.20;;;13.37;;
17153;SDS011;8692;52.164;7.558;2022-10-13T08:41:53;17.13;;;13.17;;
17153;SDS011;8692;52.164;7.558;2022-10-13T08:44:27;14.73;;;11.80;;
17153;SDS011;8692;52.164;7.558;2022-10-13T08:47:27;16.13;;;13.73;;
17153;SDS011;8692;52.164;7.558;2022-10-13T08:50:03;17.57;;;12.63;;
17153;SDS011;8692;52.164;7.558;2022-10-13T08:52:42;18.73;;;12.43;;
17153;SDS011;8692;52.164;7.558;2022-10-13T08:55:22;13.57;;;12.17;;
17153;SDS011;8692;52.164;7.558;2022-10-13T08:57:59;18.60;;;12.87;;
17153;SDS011;8692;52.164;7.558;2022-10-13T09:00:31;15.63;;;12.97;;
17153;SDS011;8692;52.164;7.558;2022-10-13T09:03:06;17.30;;;13.60;;
17153;SDS011;8692;52.164;7.558;2022-10-13T09:05:57;19.47;;;12.47;;
17153;SDS011;8692;52.164;7.558;2022-10-13T09:08:38;17.63;;;12.60;;
17153;SDS011;8692;52.164;7.558;2022-10-13T09:11:09;23.77;;;12.77;;
17153;SDS011;8692;52.164;7.558;2022-10-13T09:13:41;21.57;;;11.53;;
17153;SDS011;8692;52.164;7.558;2022-10-13T09:16:10;17.07;;;11.97;;
17153;SDS011;8692;52.164;7.558;2022-10-13T09:18:38;18.23;;;11.37;;
17153;SDS011;8692;52.164;7.558;2022-10-13T09:21:17;14.90;;;11.07;;
17153;SDS011;8692;52.164;7.558;2022-10-13T09:23:48;18.70;;;13.27;;
17153;SDS011;8692;52.164;7.558;2022-10-13T09:26:18;15.60;;;11.60;;
17153;SDS011;8692;52.164;7.558;2022-10-13T09:28:48;19.00;;;11.67;;
17153;SDS011;8692;52.164;7.558;2022-10-13T09:31:22;24.90;;;12.97;;
17153;SDS011;8692;52.164;7.558;2022-10-13T09:33:59;18.10;;;11.87;;
17153;SDS011;8692;52.164;7.558;2022-10-13T09:36:31;15.57;;;12.03;;
17153;SDS011;8692;52.164;7.558;2022-10-13T09:39:05;27.63;;;12.73;;
17153;SDS011;8692;52.164;7.558;2022-10-13T09:41:38;23.10;;;12.50;;
17153;SDS011;8692;52.164;7.558;2022-10-13T09:44:11;21.50;;;13.10;;
17153;SDS011;8692;52.164;7.558;2022-10-13T09:46:46;14.43;;;10.97;;
17153;SDS011;8692;52.164;7.558;2022-10-13T09:49:32;18.87;;;12.00;;
17153;SDS011;8692;52.164;7.558;2022-10-13T09:52:12;17.73;;;11.50;;
17153;SDS011;8692;52.164;7.558;2022-10-13T09:54:44;15.87;;;12.40;;
17153;SDS011;8692;52.164;7.558;2022-10-13T09:57:22;19.87;;;12.57;;
17153;SDS011;8692;52.164;7.558;2022-10-13T10:00:05;18.97;;;11.93;;
17153;SDS011;8692;52.164;7.558;2022-10-13T10:02:43;21.43;;;12.23;;
17153;SDS011;8692;52.164;7.558;2022-10-13T10:05:20;17.83;;;11.90;;
17153;SDS011;8692;52.164;7.558;2022-10-13T10:07:55;16.87;;;11.40;;
17153;SDS011;8692;52.164;7.558;2022-10-13T10:10:31;18.60;;;12.77;;
17153;SDS011;8692;52.164;7.558;2022-10-13T10:13:07;18.93;;;12.47;;
17153;SDS011;8692;52.164;7.558;2022-10-13T10:15:42;17.57;;;12.37;;
17153;SDS011;8692;52.164;7.558;2022-10-13T10:18:19;17.80;;;11.47;;
17153;SDS011;8692;52.164;7.558;2022-10-13T10:20:55;17.07;;;11.53;;
17153;SDS011;8692;52.164;7.558;2022-10-13T10:23:35;16.83;;;11.10;;
17153;SDS011;8692;52.164;7.558;2022-10-13T10:26:15;15.03;;;11.67;;
17153;SDS011;8692;52.164;7.558;2022-10-13T10:28:58;17.13;;;10.70;;
17153;SDS011;8692;52.164;7.558;2022-10-13T10:31:49;16.57;;;11.97;;
17153;SDS011;8692;52.164;7.558;2022-10-13T10:34:39;20.27;;;11.53;;
17153;SDS011;8692;52.164;7.558;2022-10-13T10:37:17;21.63;;;11.53;;
17153;SDS011;8692;52.164;7.558;2022-10-13T10:39:57;16.07;;;10.90;;
17153;SDS011;8692;52.164;7.558;2022-10-13T10:42:45;16.97;;;11.10;;
17153;SDS011;8692;52.164;7.558;2022-10-13T10:45:25;18.70;;;10.33;;
17153;SDS011;8692;52.164;7.558;2022-10-13T10:47:59;15.33;;;11.20;;
17153;SDS011;8692;52.164;7.558;2022-10-13T10:50:32;15.00;;;11.23;;
17153;SDS011;8692;52.164;7.558;2022-10-13T10:53:02;17.63;;;11.83;;
17153;SDS011;8692;52.164;7.558;2022-10-13T10:55:37;15.30;;;12.23;;
17153;SDS011;8692;52.164;7.558;2022-10-13T10:58:19;27.70;;;14.50;;
17153;SDS011;8692;52.164;7.558;2022-10-13T11:00:58;18.00;;;12.20;;
17153;SDS011;8692;52.164;7.558;2022-10-13T11:03:42;15.60;;;11.83;;
17153;SDS011;8692;52.164;7.558;2022-10-13T11:06:22;13.13;;;10.83;;
17153;SDS011;8692;52.164;7.558;2022-10-13T11:08:54;15.30;;;10.97;;
17153;SDS011;8692;52.164;7.558;2022-10-13T11:14:22;21.47;;;11.77;;
17153;SDS011;8692;52.164;7.558;2022-10-13T11:17:09;13.47;;;11.10;;
17153;SDS011;8692;52.164;7.558;2022-10-13T11:19:46;14.27;;;11.23;;
17153;SDS011;8692;52.164;7.558;2022-10-13T11:22:17;23.50;;;12.60;;
17153;SDS011;8692;52.164;7.558;2022-10-13T11:24:49;15.63;;;11.33;;
17153;SDS011;8692;52.164;7.558;2022-10-13T11:27:40;19.67;;;11.63;;
17153;SDS011;8692;52.164;7.558;2022-10-13T11:33:49;15.07;;;10.70;;
17153;SDS011;8692;52.164;7.558;2022-10-13T11:45:43;16.23;;;11.00;;
17153;SDS011;8692;52.164;7.558;2022-10-13T11:48:31;16.90;;;10.90;;
17153;SDS011;8692;52.164;7.558;2022-10-13T11:51:26;14.40;;;11.20;;
17153;SDS011;8692;52.164;7.558;2022-10-13T11:54:08;21.17;;;10.70;;
17153;SDS011;8692;52.164;7.558;2022-10-13T11:56:50;16.50;;;10.60;;
17153;SDS011;8692;52.164;7.558;2022-10-13T11:59:23;15.43;;;9.70;;
17153;SDS011;8692;52.164;7.558;2022-10-13T12:01:53;15.00;;;10.30;;
17153;SDS011;8692;52.164;7.558;2022-10-13T12:04:24;17.73;;;11.10;;
17153;SDS011;8692;52.164;7.558;2022-10-13T12:06:58;16.20;;;9.83;;
17153;SDS011;8692;52.164;7.558;2022-10-13T12:09:30;18.47;;;10.47;;
17153;SDS011;8692;52.164;7.558;2022-10-13T12:12:04;13.47;;;10.10;;
17153;SDS011;8692;52.164;7.558;2022-10-13T12:14:41;13.00;;;9.90;;
17153;SDS011;8692;52.164;7.558;2022-10-13T12:17:20;14.83;;;9.40;;
17153;SDS011;8692;52.164;7.558;2022-10-13T12:19:49;14.60;;;10.20;;
17153;SDS011;8692;52.164;7.558;2022-10-13T12:22:18;17.23;;;9.77;;
17153;SDS011;8692;52.164;7.558;2022-10-13T12:24:55;12.73;;;8.87;;
17153;SDS011;8692;52.164;7.558;2022-10-13T12:27:27;12.70;;;8.83;;
17153;SDS011;8692;52.164;7.558;2022-10-13T12:29:59;13.00;;;9.10;;
17153;SDS011;8692;52.164;7.558;2022-10-13T12:32:27;17.80;;;9.30;;
17153;SDS011;8692;52.164;7.558;2022-10-13T12:35:08;15.53;;;10.10;;
17153;SDS011;8692;52.164;7.558;2022-10-13T12:37:39;11.53;;;9.60;;
17153;SDS011;8692;52.164;7.558;2022-10-13T12:40:11;10.73;;;9.20;;
17153;SDS011;8692;52.164;7.558;2022-10-13T12:42:50;10.40;;;9.03;;
17153;SDS011;8692;52.164;7.558;2022-10-13T12:45:22;9.93;;;8.57;;
17153;SDS011;8692;52.164;7.558;2022-10-13T12:47:53;15.40;;;9.70;;
17153;SDS011;8692;52.164;7.558;2022-10-13T12:50:36;11.97;;;9.03;;
17153;SDS011;8692;52.164;7.558;2022-10-13T12:53:12;11.53;;;8.40;;
17153;SDS011;8692;52.164;7.558;2022-10-13T12:55:46;11.67;;;8.60;;
17153;SDS011;8692;52.164;7.558;2022-10-13T12:58:22;13.40;;;8.20;;
17153;SDS011;8692;52.164;7.558;2022-10-13T13:01:01;9.60;;;8.03;;
17153;SDS011;8692;52.164;7.558;2022-10-13T13:03:36;10.53;;;7.97;;
17153;SDS011;8692;52.164;7.558;2022-10-13T13:06:09;11.07;;;8.60;;
17153;SDS011;8692;52.164;7.558;2022-10-13T13:11:36;17.63;;;8.03;;
17153;SDS011;8692;52.164;7.558;2022-10-13T13:14:30;12.73;;;7.53;;
17153;SDS011;8692;52.164;7.558;2022-10-13T13:17:05;11.43;;;7.10;;
17153;SDS011;8692;52.164;7.558;2022-10-13T13:19:40;11.83;;;7.27;;
17153;SDS011;8692;52.164;7.558;2022-10-13T13:22:09;12.13;;;7.93;;
17153;SDS011;8692;52.164;7.558;2022-10-13T13:24:37;9.60;;;6.67;;
17153;SDS011;8692;52.164;7.558;2022-10-13T13:27:15;9.10;;;7.17;;
17153;SDS011;8692;52.164;7.558;2022-10-13T13:29:47;13.30;;;7.00;;
17153;SDS011;8692;52.164;7.558;2022-10-13T13:32:15;14.23;;;8.33;;
17153;SDS011;8692;52.164;7.558;2022-10-13T13:34:48;11.77;;;7.37;;
17153;SDS011;8692;52.164;7.558;2022-10-13T13:37:26;11.63;;;7.03;;
17153;SDS011;8692;52.164;7.558;2022-10-13T13:39:59;10.07;;;7.40;;
17153;SDS011;8692;52.164;7.558;2022-10-13T13:42:28;9.47;;;7.13;;
17153;SDS011;8692;52.164;7.558;2022-10-13T13:44:57;14.40;;;7.97;;
17153;SDS011;8692;52.164;7.558;2022-10-13T13:47:26;16.27;;;8.40;;
17153;SDS011;8692;52.164;7.558;2022-10-13T13:49:55;12.97;;;7.47;;
17153;SDS011;8692;52.164;7.558;2022-10-13T13:52:26;10.67;;;7.60;;
17153;SDS011;8692;52.164;7.558;2022-10-13T13:54:54;14.97;;;7.83;;
17153;SDS011;8692;52.164;7.558;2022-10-13T13:57:24;10.67;;;8.00;;
17153;SDS011;8692;52.164;7.558;2022-10-13T13:59:55;15.17;;;7.77;;
17153;SDS011;8692;52.164;7.558;2022-10-13T14:02:24;10.77;;;7.47;;
17153;SDS011;8692;52.164;7.558;2022-10-13T14:04:52;13.90;;;7.17;;
17153;SDS011;8692;52.164;7.558;2022-10-13T14:07:22;10.43;;;8.03;;
17153;SDS011;8692;52.164;7.558;2022-10-13T14:09:51;9.73;;;7.30;;
17153;SDS011;8692;52.164;7.558;2022-10-13T14:12:27;10.83;;;8.00;;
17153;SDS011;8692;52.164;7.558;2022-10-13T14:14:58;10.17;;;7.83;;
17153;SDS011;8692;52.164;7.558;2022-10-13T14:17:27;11.27;;;7.07;;
17153;SDS011;8692;52.164;7.558;2022-10-13T14:19:57;9.77;;;6.70;;
17153;SDS011;8692;52.164;7.558;2022-10-13T14:22:25;11.37;;;7.80;;
17153;SDS011;8692;52.164;7.558;2022-10-13T14:24:55;13.37;;;8.60;;
17153;SDS011;8692;52.164;7.558;2022-10-13T14:27:26;10.77;;;8.03;;
17153;SDS011;8692;52.164;7.558;2022-10-13T14:29:58;8.60;;;7.57;;
17153;SDS011;8692;52.164;7.558;2022-10-13T14:32:30;8.87;;;7.40;;
17153;SDS011;8692;52.164;7.558;2022-10-13T14:35:00;11.90;;;8.37;;
17153;SDS011;8692;52.164;7.558;2022-10-13T14:37:29;8.97;;;7.43;;
17153;SDS011;8692;52.164;7.558;2022-10-13T14:39:59;12.73;;;8.07;;
17153;SDS011;8692;52.164;7.558;2022-10-13T14:42:30;13.60;;;8.67;;
17153;SDS011;8692;52.164;7.558;2022-10-13T14:45:00;11.83;;;8.17;;
17153;SDS011;8692;52.164;7.558;2022-10-13T14:47:32;10.53;;;7.87;;
17153;SDS011;8692;52.164;7.558;2022-10-13T14:50:01;9.00;;;7.67;;
17153;SDS011;8692;52.164;7.558;2022-10-13T14:52:29;11.97;;;8.40;;
17153;SDS011;8692;52.164;7.558;2022-10-13T14:54:57;12.70;;;9.57;;
17153;SDS011;8692;52.164;7.558;2022-10-13T14:57:25;9.67;;;8.20;;
17153;SDS011;8692;52.164;7.558;2022-10-13T14:59:53;12.73;;;9.73;;
17153;SDS011;8692;52.164;7.558;2022-10-13T15:02:29;12.27;;;8.40;;
17153;SDS011;8692;52.164;7.558;2022-10-13T15:04:59;11.67;;;8.87;;
17153;SDS011;8692;52.164;7.558;2022-10-13T15:07:29;11.00;;;7.83;;
17153;SDS011;8692;52.164;7.558;2022-10-13T15:09:57;11.33;;;7.90;;
17153;SDS011;8692;52.164;7.558;2022-10-13T15:12:33;13.63;;;9.27;;
17153;SDS011;8692;52.164;7.558;2022-10-13T15:15:02;12.20;;;7.47;;
17153;SDS011;8692;52.164;7.558;2022-10-13T15:17:31;8.83;;;7.93;;
17153;SDS011;8692;52.164;7.558;2022-10-13T15:20:03;15.03;;;8.23;;
17153;SDS011;8692;52.164;7.558;2022-10-13T15:22:33;16.77;;;8.73;;
17153;SDS011;8692;52.164;7.558;2022-10-13T15:25:01;12.23;;;8.73;;
17153;SDS011;8692;52.164;7.558;2022-10-13T15:27:33;11.73;;;8.53;;
17153;SDS011;8692;52.164;7.558;2022-10-13T15:30:09;9.33;;;8.07;;